Terminal Aerodrome Forecast
Issued by NWS

Home | Current Version | Previous Version | Text Only | Print | Product List | Glossary On
Versions: 1 2 3 4 5 6 7 8 9 10 11 12 13 14 15 16 17 18 19
000
FTUS45 KSLC 212340
TAFOGD
TAF
KOGD 212340Z 2200/2224 34014G21KT P6SM -SHRA BKN015 OVC035
     FM220300 33008KT 6SM -RA SCT007 BKN013
     FM221800 34011KT P6SM -SHRA SCT020 BKN050=

USA.gov is the U.S. government's official web portal to all federal, state and local government web resources and services.